sensor_id;sensor_type;location;lat;lon;timestamp;temperature;humidity
16174;DHT22;14031;50.158;8.626;2022-08-30T00:02:23;19.70;99.90
16174;DHT22;14031;50.158;8.626;2022-08-30T00:04:50;19.60;99.90
16174;DHT22;14031;50.158;8.626;2022-08-30T00:07:18;19.50;99.90
16174;DHT22;14031;50.158;8.626;2022-08-30T00:09:45;19.50;99.90
16174;DHT22;14031;50.158;8.626;2022-08-30T00:12:13;19.50;99.90
16174;DHT22;14031;50.158;8.626;2022-08-30T00:14:40;19.40;99.90
16174;DHT22;14031;50.158;8.626;2022-08-30T00:17:07;19.40;99.90
16174;DHT22;14031;50.158;8.626;2022-08-30T00:19:34;19.40;99.90
16174;DHT22;14031;50.158;8.626;2022-08-30T00:22:01;19.30;99.90
16174;DHT22;14031;50.158;8.626;2022-08-30T00:24:27;19.30;99.90
16174;DHT22;14031;50.158;8.626;2022-08-30T00:26:55;19.30;99.90
16174;DHT22;14031;50.158;8.626;2022-08-30T00:29:23;19.20;99.90
16174;DHT22;14031;50.158;8.626;2022-08-30T00:31:50;19.20;99.90
16174;DHT22;14031;50.158;8.626;2022-08-30T00:34:17;19.20;99.90
16174;DHT22;14031;50.158;8.626;2022-08-30T00:36:44;19.20;99.90
16174;DHT22;14031;50.158;8.626;2022-08-30T00:39:11;19.20;99.90
16174;DHT22;14031;50.158;8.626;2022-08-30T00:41:38;19.10;99.90
16174;DHT22;14031;50.158;8.626;2022-08-30T00:44:05;19.10;99.90
16174;DHT22;14031;50.158;8.626;2022-08-30T00:46:33;19.20;99.90
16174;DHT22;14031;50.158;8.626;2022-08-30T00:49:03;19.10;99.90
16174;DHT22;14031;50.158;8.626;2022-08-30T00:51:31;19.00;99.90
16174;DHT22;14031;50.158;8.626;2022-08-30T00:53:58;19.10;99.90
16174;DHT22;14031;50.158;8.626;2022-08-30T00:56:27;19.00;99.90
16174;DHT22;14031;50.158;8.626;2022-08-30T00:58:56;19.00;99.90
16174;DHT22;14031;50.158;8.626;2022-08-30T01:01:25;18.90;99.90
16174;DHT22;14031;50.158;8.626;2022-08-30T01:03:54;18.90;99.90
16174;DHT22;14031;50.158;8.626;2022-08-30T01:06:21;19.00;99.90
16174;DHT22;14031;50.158;8.626;2022-08-30T01:08:48;18.90;99.90
16174;DHT22;14031;50.158;8.626;2022-08-30T01:11:17;18.80;99.90
16174;DHT22;14031;50.158;8.626;2022-08-30T01:13:46;18.80;99.90
16174;DHT22;14031;50.158;8.626;2022-08-30T01:16:14;18.80;99.90
16174;DHT22;14031;50.158;8.626;2022-08-30T01:18:41;18.80;99.90
16174;DHT22;14031;50.158;8.626;2022-08-30T01:21:16;18.80;99.90
16174;DHT22;14031;50.158;8.626;2022-08-30T01:23:46;18.70;99.90
16174;DHT22;14031;50.158;8.626;2022-08-30T01:26:16;18.70;99.90
16174;DHT22;14031;50.158;8.626;2022-08-30T01:28:45;18.60;99.90
16174;DHT22;14031;50.158;8.626;2022-08-30T01:31:13;18.60;99.90
16174;DHT22;14031;50.158;8.626;2022-08-30T01:33:41;18.60;99.90
16174;DHT22;14031;50.158;8.626;2022-08-30T01:36:10;18.60;99.90
16174;DHT22;14031;50.158;8.626;2022-08-30T01:38:40;18.60;99.90
16174;DHT22;14031;50.158;8.626;2022-08-30T01:41:13;18.60;99.90
16174;DHT22;14031;50.158;8.626;2022-08-30T01:43:41;18.50;99.90
16174;DHT22;14031;50.158;8.626;2022-08-30T01:46:08;18.50;99.90
16174;DHT22;14031;50.158;8.626;2022-08-30T01:48:36;18.50;99.90
16174;DHT22;14031;50.158;8.626;2022-08-30T01:51:04;18.50;99.90
16174;DHT22;14031;50.158;8.626;2022-08-30T01:53:31;18.40;99.90
16174;DHT22;14031;50.158;8.626;2022-08-30T01:55:58;18.40;99.90
16174;DHT22;14031;50.158;8.626;2022-08-30T01:58:26;18.30;99.90
16174;DHT22;14031;50.158;8.626;2022-08-30T02:00:55;18.30;99.90
16174;DHT22;14031;50.158;8.626;2022-08-30T02:03:22;18.30;99.90
16174;DHT22;14031;50.158;8.626;2022-08-30T02:05:50;18.30;99.90
16174;DHT22;14031;50.158;8.626;2022-08-30T02:08:17;18.20;99.90
16174;DHT22;14031;50.158;8.626;2022-08-30T02:10:44;18.20;99.90
16174;DHT22;14031;50.158;8.626;2022-08-30T02:13:11;18.20;99.90
16174;DHT22;14031;50.158;8.626;2022-08-30T02:15:39;18.20;99.90
16174;DHT22;14031;50.158;8.626;2022-08-30T02:18:06;18.10;99.90
16174;DHT22;14031;50.158;8.626;2022-08-30T02:20:37;18.10;99.90
16174;DHT22;14031;50.158;8.626;2022-08-30T02:23:04;18.10;99.90
16174;DHT22;14031;50.158;8.626;2022-08-30T02:25:30;18.00;99.90
16174;DHT22;14031;50.158;8.626;2022-08-30T02:27:57;18.00;99.90
16174;DHT22;14031;50.158;8.626;2022-08-30T02:30:27;17.90;99.90
16174;DHT22;14031;50.158;8.626;2022-08-30T02:32:55;17.90;99.90
16174;DHT22;14031;50.158;8.626;2022-08-30T02:35:26;17.90;99.90
16174;DHT22;14031;50.158;8.626;2022-08-30T02:37:53;17.90;99.90
16174;DHT22;14031;50.158;8.626;2022-08-30T02:40:20;17.90;99.90
16174;DHT22;14031;50.158;8.626;2022-08-30T02:42:47;17.90;99.90
16174;DHT22;14031;50.158;8.626;2022-08-30T02:45:14;17.80;99.90
16174;DHT22;14031;50.158;8.626;2022-08-30T02:47:44;17.80;99.90
16174;DHT22;14031;50.158;8.626;2022-08-30T02:50:12;17.80;99.90
16174;DHT22;14031;50.158;8.626;2022-08-30T02:52:39;17.80;99.90
16174;DHT22;14031;50.158;8.626;2022-08-30T02:55:08;17.80;99.90
16174;DHT22;14031;50.158;8.626;2022-08-30T02:57:35;17.80;99.90
16174;DHT22;14031;50.158;8.626;2022-08-30T03:00:04;17.80;99.90
16174;DHT22;14031;50.158;8.626;2022-08-30T03:02:32;17.80;99.90
16174;DHT22;14031;50.158;8.626;2022-08-30T03:04:59;17.80;99.90
16174;DHT22;14031;50.158;8.626;2022-08-30T03:07:28;17.80;99.90
16174;DHT22;14031;50.158;8.626;2022-08-30T03:09:56;17.70;99.90
16174;DHT22;14031;50.158;8.626;2022-08-30T03:12:23;17.70;99.90
16174;DHT22;14031;50.158;8.626;2022-08-30T03:14:51;17.60;99.90
16174;DHT22;14031;50.158;8.626;2022-08-30T03:17:18;17.70;99.90
16174;DHT22;14031;50.158;8.626;2022-08-30T03:19:46;17.70;99.90
16174;DHT22;14031;50.158;8.626;2022-08-30T03:22:12;17.60;99.90
16174;DHT22;14031;50.158;8.626;2022-08-30T03:24:41;17.60;99.90
16174;DHT22;14031;50.158;8.626;2022-08-30T03:27:08;17.60;99.90
16174;DHT22;14031;50.158;8.626;2022-08-30T03:29:35;17.60;99.90
16174;DHT22;14031;50.158;8.626;2022-08-30T03:32:02;17.50;99.90
16174;DHT22;14031;50.158;8.626;2022-08-30T03:34:29;17.50;99.90
16174;DHT22;14031;50.158;8.626;2022-08-30T03:36:57;17.50;99.90
16174;DHT22;14031;50.158;8.626;2022-08-30T03:39:26;17.50;99.90
16174;DHT22;14031;50.158;8.626;2022-08-30T03:41:54;17.50;99.90
16174;DHT22;14031;50.158;8.626;2022-08-30T03:44:21;17.40;99.90
16174;DHT22;14031;50.158;8.626;2022-08-30T03:46:48;17.30;99.90
16174;DHT22;14031;50.158;8.626;2022-08-30T03:49:15;17.40;99.90
16174;DHT22;14031;50.158;8.626;2022-08-30T03:51:42;17.40;99.90
16174;DHT22;14031;50.158;8.626;2022-08-30T03:54:09;17.40;99.90
16174;DHT22;14031;50.158;8.626;2022-08-30T03:56:36;17.30;99.90
16174;DHT22;14031;50.158;8.626;2022-08-30T03:59:05;17.30;99.90
16174;DHT22;14031;50.158;8.626;2022-08-30T04:01:32;17.20;99.90
16174;DHT22;14031;50.158;8.626;2022-08-30T04:03:58;17.20;99.90
16174;DHT22;14031;50.158;8.626;2022-08-30T04:06:25;17.30;99.90
16174;DHT22;14031;50.158;8.626;2022-08-30T04:08:53;17.30;99.90
16174;DHT22;14031;50.158;8.626;2022-08-30T04:11:20;17.20;99.90
16174;DHT22;14031;50.158;8.626;2022-08-30T04:13:47;17.20;99.90
16174;DHT22;14031;50.158;8.626;2022-08-30T04:16:17;17.20;99.90
16174;DHT22;14031;50.158;8.626;2022-08-30T04:18:44;17.20;99.90
16174;DHT22;14031;50.158;8.626;2022-08-30T04:21:11;17.30;99.90
16174;DHT22;14031;50.158;8.626;2022-08-30T04:23:38;17.20;99.90
16174;DHT22;14031;50.158;8.626;2022-08-30T04:26:05;17.20;99.90
16174;DHT22;14031;50.158;8.626;2022-08-30T04:28:32;17.20;99.90
16174;DHT22;14031;50.158;8.626;2022-08-30T04:30:59;17.20;99.90
16174;DHT22;14031;50.158;8.626;2022-08-30T04:33:34;17.20;99.90
16174;DHT22;14031;50.158;8.626;2022-08-30T04:36:04;17.10;99.90
16174;DHT22;14031;50.158;8.626;2022-08-30T04:38:31;17.10;99.90
16174;DHT22;14031;50.158;8.626;2022-08-30T04:40:58;17.10;99.90
16174;DHT22;14031;50.158;8.626;2022-08-30T04:43:25;17.10;99.90
16174;DHT22;14031;50.158;8.626;2022-08-30T04:45:53;17.10;99.90
16174;DHT22;14031;50.158;8.626;2022-08-30T04:48:21;17.10;99.90
16174;DHT22;14031;50.158;8.626;2022-08-30T04:50:49;17.10;99.90
16174;DHT22;14031;50.158;8.626;2022-08-30T04:53:16;17.10;99.90
16174;DHT22;14031;50.158;8.626;2022-08-30T04:55:43;17.10;99.90
16174;DHT22;14031;50.158;8.626;2022-08-30T04:58:10;17.20;99.90
16174;DHT22;14031;50.158;8.626;2022-08-30T05:00:43;17.10;99.90
16174;DHT22;14031;50.158;8.626;2022-08-30T05:03:10;17.10;99.90
16174;DHT22;14031;50.158;8.626;2022-08-30T05:05:37;17.10;99.90
16174;DHT22;14031;50.158;8.626;2022-08-30T05:08:09;17.20;99.90
16174;DHT22;14031;50.158;8.626;2022-08-30T05:10:37;17.20;99.90
16174;DHT22;14031;50.158;8.626;2022-08-30T05:13:05;17.20;99.90
16174;DHT22;14031;50.158;8.626;2022-08-30T05:15:32;17.20;99.90
16174;DHT22;14031;50.158;8.626;2022-08-30T05:17:59;17.20;99.90
16174;DHT22;14031;50.158;8.626;2022-08-30T05:20:26;17.20;99.90
16174;DHT22;14031;50.158;8.626;2022-08-30T05:22:53;17.20;99.90
16174;DHT22;14031;50.158;8.626;2022-08-30T05:25:24;17.20;99.90
16174;DHT22;14031;50.158;8.626;2022-08-30T05:27:52;17.20;99.90
16174;DHT22;14031;50.158;8.626;2022-08-30T05:30:20;17.20;99.90
16174;DHT22;14031;50.158;8.626;2022-08-30T05:32:47;17.20;99.90
16174;DHT22;14031;50.158;8.626;2022-08-30T05:35:15;17.20;99.90
16174;DHT22;14031;50.158;8.626;2022-08-30T05:37:42;17.30;99.90
16174;DHT22;14031;50.158;8.626;2022-08-30T05:40:11;17.30;99.90
16174;DHT22;14031;50.158;8.626;2022-08-30T05:42:43;17.30;99.90
16174;DHT22;14031;50.158;8.626;2022-08-30T05:45:11;17.50;99.90
16174;DHT22;14031;50.158;8.626;2022-08-30T05:47:38;17.40;99.90
16174;DHT22;14031;50.158;8.626;2022-08-30T05:50:06;17.40;99.90
16174;DHT22;14031;50.158;8.626;2022-08-30T05:52:34;17.50;99.90
16174;DHT22;14031;50.158;8.626;2022-08-30T05:55:01;17.50;99.90
16174;DHT22;14031;50.158;8.626;2022-08-30T05:57:31;17.50;99.90
16174;DHT22;14031;50.158;8.626;2022-08-30T05:59:59;17.60;99.90
16174;DHT22;14031;50.158;8.626;2022-08-30T06:02:26;17.60;99.90
16174;DHT22;14031;50.158;8.626;2022-08-30T06:04:53;17.70;99.90
16174;DHT22;14031;50.158;8.626;2022-08-30T06:07:20;17.80;99.90
16174;DHT22;14031;50.158;8.626;2022-08-30T06:09:47;17.90;99.90
16174;DHT22;14031;50.158;8.626;2022-08-30T06:12:14;17.80;99.90
16174;DHT22;14031;50.158;8.626;2022-08-30T06:14:40;18.10;99.90
16174;DHT22;14031;50.158;8.626;2022-08-30T06:17:09;18.00;99.90
16174;DHT22;14031;50.158;8.626;2022-08-30T06:19:36;18.10;99.90
16174;DHT22;14031;50.158;8.626;2022-08-30T06:22:03;18.20;99.90
16174;DHT22;14031;50.158;8.626;2022-08-30T06:24:30;18.20;99.90
16174;DHT22;14031;50.158;8.626;2022-08-30T06:26:57;18.20;99.90
16174;DHT22;14031;50.158;8.626;2022-08-30T06:29:24;18.30;99.90
16174;DHT22;14031;50.158;8.626;2022-08-30T06:31:51;18.30;99.90
16174;DHT22;14031;50.158;8.626;2022-08-30T06:34:19;18.40;99.90
16174;DHT22;14031;50.158;8.626;2022-08-30T06:36:46;18.40;99.90
16174;DHT22;14031;50.158;8.626;2022-08-30T06:39:13;18.50;99.90
16174;DHT22;14031;50.158;8.626;2022-08-30T06:41:40;18.60;99.90
16174;DHT22;14031;50.158;8.626;2022-08-30T06:44:08;18.60;99.90
16174;DHT22;14031;50.158;8.626;2022-08-30T06:46:37;18.70;99.90
16174;DHT22;14031;50.158;8.626;2022-08-30T06:49:05;18.70;99.90
16174;DHT22;14031;50.158;8.626;2022-08-30T06:51:36;18.80;99.90
16174;DHT22;14031;50.158;8.626;2022-08-30T06:54:05;18.90;99.90
16174;DHT22;14031;50.158;8.626;2022-08-30T06:56:32;19.00;99.90
16174;DHT22;14031;50.158;8.626;2022-08-30T06:58:59;19.10;99.90
16174;DHT22;14031;50.158;8.626;2022-08-30T07:01:27;19.20;99.90
16174;DHT22;14031;50.158;8.626;2022-08-30T07:03:55;19.30;99.90
16174;DHT22;14031;50.158;8.626;2022-08-30T07:06:23;19.40;99.90
16174;DHT22;14031;50.158;8.626;2022-08-30T07:08:52;19.40;99.90
16174;DHT22;14031;50.158;8.626;2022-08-30T07:11:30;19.50;99.90
16174;DHT22;14031;50.158;8.626;2022-08-30T07:13:57;19.70;99.90
16174;DHT22;14031;50.158;8.626;2022-08-30T07:16:25;19.70;99.90
16174;DHT22;14031;50.158;8.626;2022-08-30T07:18:52;19.80;99.90
16174;DHT22;14031;50.158;8.626;2022-08-30T07:21:23;19.90;99.90
16174;DHT22;14031;50.158;8.626;2022-08-30T07:23:52;20.00;99.90
16174;DHT22;14031;50.158;8.626;2022-08-30T07:26:22;20.00;99.90
16174;DHT22;14031;50.158;8.626;2022-08-30T07:28:49;20.20;99.90
16174;DHT22;14031;50.158;8.626;2022-08-30T07:31:17;20.30;99.90
16174;DHT22;14031;50.158;8.626;2022-08-30T07:33:45;20.30;99.90
16174;DHT22;14031;50.158;8.626;2022-08-30T07:36:12;20.50;99.90
16174;DHT22;14031;50.158;8.626;2022-08-30T07:38:41;20.60;99.90
16174;DHT22;14031;50.158;8.626;2022-08-30T07:41:15;20.70;99.90
16174;DHT22;14031;50.158;8.626;2022-08-30T07:43:42;20.70;99.90
16174;DHT22;14031;50.158;8.626;2022-08-30T07:46:09;20.80;99.90
16174;DHT22;14031;50.158;8.626;2022-08-30T07:48:36;21.00;99.90
16174;DHT22;14031;50.158;8.626;2022-08-30T07:51:03;21.10;99.90
16174;DHT22;14031;50.158;8.626;2022-08-30T07:53:30;21.20;99.90
16174;DHT22;14031;50.158;8.626;2022-08-30T07:55:57;21.20;99.90
16174;DHT22;14031;50.158;8.626;2022-08-30T07:58:26;21.30;99.90
16174;DHT22;14031;50.158;8.626;2022-08-30T08:00:54;21.40;99.90
16174;DHT22;14031;50.158;8.626;2022-08-30T08:03:23;21.40;99.90
16174;DHT22;14031;50.158;8.626;2022-08-30T08:05:51;21.50;99.90
16174;DHT22;14031;50.158;8.626;2022-08-30T08:08:20;21.60;99.90
16174;DHT22;14031;50.158;8.626;2022-08-30T08:10:47;21.70;99.90
16174;DHT22;14031;50.158;8.626;2022-08-30T08:13:13;21.80;99.90
16174;DHT22;14031;50.158;8.626;2022-08-30T08:15:42;21.90;99.90
16174;DHT22;14031;50.158;8.626;2022-08-30T08:18:09;22.00;99.90
16174;DHT22;14031;50.158;8.626;2022-08-30T08:20:36;22.10;99.90
16174;DHT22;14031;50.158;8.626;2022-08-30T08:23:03;22.20;99.90
16174;DHT22;14031;50.158;8.626;2022-08-30T08:25:30;22.20;99.90
16174;DHT22;14031;50.158;8.626;2022-08-30T08:27:56;22.30;99.90
16174;DHT22;14031;50.158;8.626;2022-08-30T08:30:23;22.20;99.90
16174;DHT22;14031;50.158;8.626;2022-08-30T08:33:07;22.30;99.90
16174;DHT22;14031;50.158;8.626;2022-08-30T08:35:34;22.20;99.90
16174;DHT22;14031;50.158;8.626;2022-08-30T08:38:01;22.20;99.90
16174;DHT22;14031;50.158;8.626;2022-08-30T08:40:35;22.10;99.90
16174;DHT22;14031;50.158;8.626;2022-08-30T08:43:07;22.10;99.90
16174;DHT22;14031;50.158;8.626;2022-08-30T08:45:42;22.10;99.90
16174;DHT22;14031;50.158;8.626;2022-08-30T08:48:25;22.10;99.90
16174;DHT22;14031;50.158;8.626;2022-08-30T08:50:53;22.20;99.90
16174;DHT22;14031;50.158;8.626;2022-08-30T08:53:38;22.30;99.90
16174;DHT22;14031;50.158;8.626;2022-08-30T08:56:10;22.40;99.90
16174;DHT22;14031;50.158;8.626;2022-08-30T08:58:42;22.60;99.90
16174;DHT22;14031;50.158;8.626;2022-08-30T09:01:11;22.70;99.90
16174;DHT22;14031;50.158;8.626;2022-08-30T09:03:40;22.80;99.90
16174;DHT22;14031;50.158;8.626;2022-08-30T09:06:20;22.90;99.90
16174;DHT22;14031;50.158;8.626;2022-08-30T09:08:48;23.00;99.90
16174;DHT22;14031;50.158;8.626;2022-08-30T09:11:21;23.10;99.90
16174;DHT22;14031;50.158;8.626;2022-08-30T09:13:48;23.10;99.90
16174;DHT22;14031;50.158;8.626;2022-08-30T09:16:49;23.30;99.90
16174;DHT22;14031;50.158;8.626;2022-08-30T09:19:45;23.40;99.90
16174;DHT22;14031;50.158;8.626;2022-08-30T09:22:26;23.50;99.90
16174;DHT22;14031;50.158;8.626;2022-08-30T09:25:01;23.60;99.90
16174;DHT22;14031;50.158;8.626;2022-08-30T09:27:31;23.60;99.90
16174;DHT22;14031;50.158;8.626;2022-08-30T09:30:04;23.70;99.90
16174;DHT22;14031;50.158;8.626;2022-08-30T09:32:34;23.70;99.90
16174;DHT22;14031;50.158;8.626;2022-08-30T09:35:05;23.70;99.90
16174;DHT22;14031;50.158;8.626;2022-08-30T09:37:39;23.70;99.90
16174;DHT22;14031;50.158;8.626;2022-08-30T09:40:13;23.70;99.90
16174;DHT22;14031;50.158;8.626;2022-08-30T09:43:01;23.80;99.90
16174;DHT22;14031;50.158;8.626;2022-08-30T09:45:32;23.80;99.90
16174;DHT22;14031;50.158;8.626;2022-08-30T09:48:02;23.90;99.90
16174;DHT22;14031;50.158;8.626;2022-08-30T09:50:52;24.00;99.90
16174;DHT22;14031;50.158;8.626;2022-08-30T09:53:24;24.10;99.90
16174;DHT22;14031;50.158;8.626;2022-08-30T09:56:02;24.10;99.90
16174;DHT22;14031;50.158;8.626;2022-08-30T09:58:48;24.20;99.90
16174;DHT22;14031;50.158;8.626;2022-08-30T10:01:22;24.30;99.90
16174;DHT22;14031;50.158;8.626;2022-08-30T10:03:57;24.30;99.90
16174;DHT22;14031;50.158;8.626;2022-08-30T10:06:32;24.40;99.90
16174;DHT22;14031;50.158;8.626;2022-08-30T10:09:09;24.50;99.90
16174;DHT22;14031;50.158;8.626;2022-08-30T10:11:44;24.50;99.90
16174;DHT22;14031;50.158;8.626;2022-08-30T10:14:33;24.60;99.90
16174;DHT22;14031;50.158;8.626;2022-08-30T10:17:09;24.70;99.90
16174;DHT22;14031;50.158;8.626;2022-08-30T10:19:47;24.70;99.90
16174;DHT22;14031;50.158;8.626;2022-08-30T10:22:20;24.80;99.90
16174;DHT22;14031;50.158;8.626;2022-08-30T10:24:53;24.90;99.90
16174;DHT22;14031;50.158;8.626;2022-08-30T10:27:25;25.00;99.90
16174;DHT22;14031;50.158;8.626;2022-08-30T10:29:58;25.10;99.90
16174;DHT22;14031;50.158;8.626;2022-08-30T10:32:31;25.30;99.90
16174;DHT22;14031;50.158;8.626;2022-08-30T10:35:03;25.40;99.90
16174;DHT22;14031;50.158;8.626;2022-08-30T10:37:36;25.50;99.90
16174;DHT22;14031;50.158;8.626;2022-08-30T10:40:10;25.60;99.90
16174;DHT22;14031;50.158;8.626;2022-08-30T10:42:53;25.70;99.90
16174;DHT22;14031;50.158;8.626;2022-08-30T10:45:21;25.70;99.90
16174;DHT22;14031;50.158;8.626;2022-08-30T10:47:56;25.80;99.90
16174;DHT22;14031;50.158;8.626;2022-08-30T10:50:29;25.80;99.90
16174;DHT22;14031;50.158;8.626;2022-08-30T10:53:08;25.80;99.90
16174;DHT22;14031;50.158;8.626;2022-08-30T10:55:40;25.90;99.90
16174;DHT22;14031;50.158;8.626;2022-08-30T10:58:11;26.00;99.90
16174;DHT22;14031;50.158;8.626;2022-08-30T11:00:45;26.00;99.90
16174;DHT22;14031;50.158;8.626;2022-08-30T11:06:21;26.30;99.90
16174;DHT22;14031;50.158;8.626;2022-08-30T11:09:09;26.40;99.90
16174;DHT22;14031;50.158;8.626;2022-08-30T11:11:57;26.50;99.90
16174;DHT22;14031;50.158;8.626;2022-08-30T11:14:27;26.60;99.60
16174;DHT22;14031;50.158;8.626;2022-08-30T11:16:58;26.60;99.70
16174;DHT22;14031;50.158;8.626;2022-08-30T11:19:33;26.80;99.90
16174;DHT22;14031;50.158;8.626;2022-08-30T11:22:11;26.90;99.00
16174;DHT22;14031;50.158;8.626;2022-08-30T11:25:02;27.00;99.30
16174;DHT22;14031;50.158;8.626;2022-08-30T11:27:48;27.10;97.50
16174;DHT22;14031;50.158;8.626;2022-08-30T11:30:50;27.10;97.70
16174;DHT22;14031;50.158;8.626;2022-08-30T11:33:37;27.10;98.20
16174;DHT22;14031;50.158;8.626;2022-08-30T11:36:06;27.30;97.70
16174;DHT22;14031;50.158;8.626;2022-08-30T11:38:56;27.40;97.70
16174;DHT22;14031;50.158;8.626;2022-08-30T11:41:35;27.50;96.30
16174;DHT22;14031;50.158;8.626;2022-08-30T11:44:25;27.60;96.60
16174;DHT22;14031;50.158;8.626;2022-08-30T11:46:53;27.70;97.70
16174;DHT22;14031;50.158;8.626;2022-08-30T11:49:41;27.80;95.80
16174;DHT22;14031;50.158;8.626;2022-08-30T11:52:29;27.90;95.70
16174;DHT22;14031;50.158;8.626;2022-08-30T11:55:17;27.90;95.90
16174;DHT22;14031;50.158;8.626;2022-08-30T11:57:54;28.10;96.50
16174;DHT22;14031;50.158;8.626;2022-08-30T12:00:33;28.30;96.30
16174;DHT22;14031;50.158;8.626;2022-08-30T12:03:01;28.50;96.00
16174;DHT22;14031;50.158;8.626;2022-08-30T12:05:50;28.70;94.40
16174;DHT22;14031;50.158;8.626;2022-08-30T12:08:43;28.80;94.00
16174;DHT22;14031;50.158;8.626;2022-08-30T12:14:41;29.10;94.50
16174;DHT22;14031;50.158;8.626;2022-08-30T12:17:27;29.30;93.50
16174;DHT22;14031;50.158;8.626;2022-08-30T12:20:24;29.50;92.60
16174;DHT22;14031;50.158;8.626;2022-08-30T12:22:53;29.70;92.30
16174;DHT22;14031;50.158;8.626;2022-08-30T12:25:29;29.80;92.40
16174;DHT22;14031;50.158;8.626;2022-08-30T12:28:12;30.00;93.20
16174;DHT22;14031;50.158;8.626;2022-08-30T12:30:41;30.20;92.30
16174;DHT22;14031;50.158;8.626;2022-08-30T12:33:10;30.30;91.90
16174;DHT22;14031;50.158;8.626;2022-08-30T12:35:40;30.50;92.30
16174;DHT22;14031;50.158;8.626;2022-08-30T12:38:14;30.50;90.70
16174;DHT22;14031;50.158;8.626;2022-08-30T12:40:51;30.70;90.60
16174;DHT22;14031;50.158;8.626;2022-08-30T12:43:26;30.70;89.70
16174;DHT22;14031;50.158;8.626;2022-08-30T12:45:57;30.80;89.00
16174;DHT22;14031;50.158;8.626;2022-08-30T12:48:25;30.80;87.50
16174;DHT22;14031;50.158;8.626;2022-08-30T12:50:56;30.90;87.80
16174;DHT22;14031;50.158;8.626;2022-08-30T12:53:27;31.00;86.80
16174;DHT22;14031;50.158;8.626;2022-08-30T12:55:57;31.00;85.90
16174;DHT22;14031;50.158;8.626;2022-08-30T12:58:38;31.10;84.30
16174;DHT22;14031;50.158;8.626;2022-08-30T13:01:16;31.10;82.90
16174;DHT22;14031;50.158;8.626;2022-08-30T13:03:53;31.10;82.90
16174;DHT22;14031;50.158;8.626;2022-08-30T13:06:37;31.20;81.90
16174;DHT22;14031;50.158;8.626;2022-08-30T13:09:04;31.30;81.70
16174;DHT22;14031;50.158;8.626;2022-08-30T13:11:31;31.20;83.00
16174;DHT22;14031;50.158;8.626;2022-08-30T13:14:19;31.30;82.30
16174;DHT22;14031;50.158;8.626;2022-08-30T13:16:48;31.50;82.60
16174;DHT22;14031;50.158;8.626;2022-08-30T13:19:25;31.60;80.80
16174;DHT22;14031;50.158;8.626;2022-08-30T13:21:54;31.70;82.20
16174;DHT22;14031;50.158;8.626;2022-08-30T13:24:22;31.90;80.60
16174;DHT22;14031;50.158;8.626;2022-08-30T13:26:49;32.00;79.00
16174;DHT22;14031;50.158;8.626;2022-08-30T13:29:18;32.20;80.00
16174;DHT22;14031;50.158;8.626;2022-08-30T13:31:45;32.40;80.90
16174;DHT22;14031;50.158;8.626;2022-08-30T13:34:13;32.60;81.30
16174;DHT22;14031;50.158;8.626;2022-08-30T13:36:46;32.90;81.00
16174;DHT22;14031;50.158;8.626;2022-08-30T13:39:14;33.20;79.70
16174;DHT22;14031;50.158;8.626;2022-08-30T13:41:41;33.50;79.90
16174;DHT22;14031;50.158;8.626;2022-08-30T13:44:08;33.70;79.20
16174;DHT22;14031;50.158;8.626;2022-08-30T13:46:37;33.90;78.60
16174;DHT22;14031;50.158;8.626;2022-08-30T13:49:05;33.90;77.80
16174;DHT22;14031;50.158;8.626;2022-08-30T13:51:34;33.70;78.10
16174;DHT22;14031;50.158;8.626;2022-08-30T13:54:01;33.70;77.10
16174;DHT22;14031;50.158;8.626;2022-08-30T13:56:29;33.50;76.80
16174;DHT22;14031;50.158;8.626;2022-08-30T13:58:57;33.30;77.00
16174;DHT22;14031;50.158;8.626;2022-08-30T14:01:23;33.10;78.30
16174;DHT22;14031;50.158;8.626;2022-08-30T14:03:50;33.00;78.10
16174;DHT22;14031;50.158;8.626;2022-08-30T14:06:17;33.20;79.40
16174;DHT22;14031;50.158;8.626;2022-08-30T14:08:46;33.60;76.20
16174;DHT22;14031;50.158;8.626;2022-08-30T14:11:14;33.90;73.80
16174;DHT22;14031;50.158;8.626;2022-08-30T14:13:42;34.30;72.80
16174;DHT22;14031;50.158;8.626;2022-08-30T14:16:09;34.60;70.80
16174;DHT22;14031;50.158;8.626;2022-08-30T14:18:36;34.80;71.30
16174;DHT22;14031;50.158;8.626;2022-08-30T14:21:03;35.10;69.50
16174;DHT22;14031;50.158;8.626;2022-08-30T14:23:30;35.30;70.60
16174;DHT22;14031;50.158;8.626;2022-08-30T14:25:59;35.60;68.40
16174;DHT22;14031;50.158;8.626;2022-08-30T14:28:27;35.90;68.10
16174;DHT22;14031;50.158;8.626;2022-08-30T14:30:55;36.20;67.80
16174;DHT22;14031;50.158;8.626;2022-08-30T14:33:22;36.50;66.30
16174;DHT22;14031;50.158;8.626;2022-08-30T14:35:49;36.80;63.50
16174;DHT22;14031;50.158;8.626;2022-08-30T14:38:16;36.90;64.20
16174;DHT22;14031;50.158;8.626;2022-08-30T14:40:43;37.00;62.90
16174;DHT22;14031;50.158;8.626;2022-08-30T14:43:12;37.00;61.90
16174;DHT22;14031;50.158;8.626;2022-08-30T14:45:40;36.90;61.10
16174;DHT22;14031;50.158;8.626;2022-08-30T14:48:07;37.10;59.80
16174;DHT22;14031;50.158;8.626;2022-08-30T14:50:34;37.20;59.20
16174;DHT22;14031;50.158;8.626;2022-08-30T14:53:01;37.30;59.10
16174;DHT22;14031;50.158;8.626;2022-08-30T14:55:28;37.30;58.70
16174;DHT22;14031;50.158;8.626;2022-08-30T14:57:56;37.40;59.00
16174;DHT22;14031;50.158;8.626;2022-08-30T15:00:25;37.60;59.60
16174;DHT22;14031;50.158;8.626;2022-08-30T15:02:52;37.90;59.80
16174;DHT22;14031;50.158;8.626;2022-08-30T15:05:19;38.10;56.70
16174;DHT22;14031;50.158;8.626;2022-08-30T15:07:47;38.10;56.90
16174;DHT22;14031;50.158;8.626;2022-08-30T15:10:16;38.10;57.20
16174;DHT22;14031;50.158;8.626;2022-08-30T15:12:45;38.00;56.70
16174;DHT22;14031;50.158;8.626;2022-08-30T15:15:14;37.60;58.20
16174;DHT22;14031;50.158;8.626;2022-08-30T15:17:43;37.30;58.60
16174;DHT22;14031;50.158;8.626;2022-08-30T15:20:10;37.30;56.30
16174;DHT22;14031;50.158;8.626;2022-08-30T15:22:37;37.30;56.10
16174;DHT22;14031;50.158;8.626;2022-08-30T15:25:04;37.40;56.70
16174;DHT22;14031;50.158;8.626;2022-08-30T15:27:31;37.70;57.20
16174;DHT22;14031;50.158;8.626;2022-08-30T15:29:58;37.90;57.20
16174;DHT22;14031;50.158;8.626;2022-08-30T15:32:25;38.00;56.90
16174;DHT22;14031;50.158;8.626;2022-08-30T15:34:53;38.10;57.60
16174;DHT22;14031;50.158;8.626;2022-08-30T15:37:20;38.10;56.10
16174;DHT22;14031;50.158;8.626;2022-08-30T15:39:48;38.10;55.90
16174;DHT22;14031;50.158;8.626;2022-08-30T15:42:15;38.10;55.80
16174;DHT22;14031;50.158;8.626;2022-08-30T15:44:44;38.00;54.80
16174;DHT22;14031;50.158;8.626;2022-08-30T15:47:10;37.90;55.80
16174;DHT22;14031;50.158;8.626;2022-08-30T15:49:37;37.80;56.70
16174;DHT22;14031;50.158;8.626;2022-08-30T15:52:05;37.60;57.10
16174;DHT22;14031;50.158;8.626;2022-08-30T15:54:32;37.60;56.60
16174;DHT22;14031;50.158;8.626;2022-08-30T15:56:59;37.80;56.60